sensor_id;sensor_type;location;lat;lon;timestamp;P1;durP1;ratioP1;P2;durP2;ratioP2
9689;SDS011;4884;42.614;23.340;2023-11-22T00:02:19;21.20;;;12.33;;
9689;SDS011;4884;42.614;23.340;2023-11-22T00:04:45;22.40;;;12.43;;
9689;SDS011;4884;42.614;23.340;2023-11-22T00:07:11;21.53;;;11.77;;
9689;SDS011;4884;42.614;23.340;2023-11-22T00:09:37;20.20;;;12.33;;
9689;SDS011;4884;42.614;23.340;2023-11-22T00:12:02;16.10;;;11.40;;
9689;SDS011;4884;42.614;23.340;2023-11-22T00:14:28;15.53;;;9.20;;
9689;SDS011;4884;42.614;23.340;2023-11-22T00:16:53;12.10;;;9.07;;
9689;SDS011;4884;42.614;23.340;2023-11-22T00:19:19;18.70;;;12.43;;
9689;SDS011;4884;42.614;23.340;2023-11-22T00:21:47;20.50;;;15.43;;
9689;SDS011;4884;42.614;23.340;2023-11-22T00:24:13;16.83;;;12.67;;
9689;SDS011;4884;42.614;23.340;2023-11-22T00:26:38;18.03;;;12.37;;
9689;SDS011;4884;42.614;23.340;2023-11-22T00:29:04;19.60;;;11.37;;
9689;SDS011;4884;42.614;23.340;2023-11-22T00:31:30;13.03;;;8.90;;
9689;SDS011;4884;42.614;23.340;2023-11-22T00:33:55;12.83;;;8.63;;
9689;SDS011;4884;42.614;23.340;2023-11-22T00:36:21;11.03;;;8.30;;
9689;SDS011;4884;42.614;23.340;2023-11-22T00:38:46;9.77;;;8.77;;
9689;SDS011;4884;42.614;23.340;2023-11-22T00:41:12;11.73;;;9.27;;
9689;SDS011;4884;42.614;23.340;2023-11-22T00:43:39;12.27;;;8.90;;
9689;SDS011;4884;42.614;23.340;2023-11-22T00:46:05;11.40;;;8.90;;
9689;SDS011;4884;42.614;23.340;2023-11-22T00:48:31;11.77;;;9.40;;
9689;SDS011;4884;42.614;23.340;2023-11-22T00:50:56;10.20;;;8.43;;
9689;SDS011;4884;42.614;23.340;2023-11-22T00:53:22;11.43;;;8.40;;
9689;SDS011;4884;42.614;23.340;2023-11-22T00:55:48;12.87;;;8.23;;
9689;SDS011;4884;42.614;23.340;2023-11-22T00:58:14;14.73;;;10.03;;
9689;SDS011;4884;42.614;23.340;2023-11-22T01:00:39;20.00;;;16.03;;
9689;SDS011;4884;42.614;23.340;2023-11-22T01:03:05;15.03;;;12.23;;
9689;SDS011;4884;42.614;23.340;2023-11-22T01:05:31;14.93;;;12.13;;
9689;SDS011;4884;42.614;23.340;2023-11-22T01:07:56;16.50;;;12.40;;
9689;SDS011;4884;42.614;23.340;2023-11-22T01:10:22;12.90;;;10.13;;
9689;SDS011;4884;42.614;23.340;2023-11-22T01:12:47;12.07;;;9.60;;
9689;SDS011;4884;42.614;23.340;2023-11-22T01:15:13;13.87;;;9.10;;
9689;SDS011;4884;42.614;23.340;2023-11-22T01:17:39;12.07;;;9.60;;
9689;SDS011;4884;42.614;23.340;2023-11-22T01:20:04;11.17;;;9.30;;
9689;SDS011;4884;42.614;23.340;2023-11-22T01:22:31;10.63;;;9.00;;
9689;SDS011;4884;42.614;23.340;2023-11-22T01:24:56;13.47;;;10.10;;
9689;SDS011;4884;42.614;23.340;2023-11-22T01:27:22;12.67;;;7.87;;
9689;SDS011;4884;42.614;23.340;2023-11-22T01:29:48;11.97;;;9.20;;
9689;SDS011;4884;42.614;23.340;2023-11-22T01:32:14;12.23;;;10.17;;
9689;SDS011;4884;42.614;23.340;2023-11-22T01:34:42;15.57;;;11.63;;
9689;SDS011;4884;42.614;23.340;2023-11-22T01:37:07;10.67;;;9.50;;
9689;SDS011;4884;42.614;23.340;2023-11-22T01:39:32;10.00;;;8.23;;
9689;SDS011;4884;42.614;23.340;2023-11-22T01:41:58;11.17;;;8.93;;
9689;SDS011;4884;42.614;23.340;2023-11-22T01:44:24;10.13;;;9.10;;
9689;SDS011;4884;42.614;23.340;2023-11-22T01:46:49;12.80;;;9.93;;
9689;SDS011;4884;42.614;23.340;2023-11-22T01:49:15;8.97;;;7.93;;
9689;SDS011;4884;42.614;23.340;2023-11-22T01:51:40;15.27;;;10.63;;
9689;SDS011;4884;42.614;23.340;2023-11-22T01:54:09;10.03;;;7.60;;
9689;SDS011;4884;42.614;23.340;2023-11-22T01:56:36;11.47;;;9.07;;
9689;SDS011;4884;42.614;23.340;2023-11-22T01:59:02;16.80;;;12.73;;
9689;SDS011;4884;42.614;23.340;2023-11-22T02:01:28;18.53;;;16.53;;
9689;SDS011;4884;42.614;23.340;2023-11-22T02:03:54;14.20;;;12.77;;
9689;SDS011;4884;42.614;23.340;2023-11-22T02:06:20;15.10;;;11.83;;
9689;SDS011;4884;42.614;23.340;2023-11-22T02:08:48;14.87;;;9.77;;
9689;SDS011;4884;42.614;23.340;2023-11-22T02:11:16;11.17;;;9.20;;
9689;SDS011;4884;42.614;23.340;2023-11-22T02:13:46;12.93;;;8.63;;
9689;SDS011;4884;42.614;23.340;2023-11-22T02:16:13;13.60;;;9.43;;
9689;SDS011;4884;42.614;23.340;2023-11-22T02:18:38;10.43;;;8.97;;
9689;SDS011;4884;42.614;23.340;2023-11-22T02:21:04;9.97;;;8.87;;
9689;SDS011;4884;42.614;23.340;2023-11-22T02:23:31;9.30;;;7.80;;
9689;SDS011;4884;42.614;23.340;2023-11-22T02:25:57;9.87;;;7.50;;
9689;SDS011;4884;42.614;23.340;2023-11-22T02:28:23;9.50;;;7.77;;
9689;SDS011;4884;42.614;23.340;2023-11-22T02:30:49;13.67;;;7.57;;
9689;SDS011;4884;42.614;23.340;2023-11-22T02:33:14;9.80;;;7.83;;
9689;SDS011;4884;42.614;23.340;2023-11-22T02:35:40;9.63;;;8.53;;
9689;SDS011;4884;42.614;23.340;2023-11-22T02:38:06;9.23;;;8.00;;
9689;SDS011;4884;42.614;23.340;2023-11-22T02:40:31;10.00;;;8.00;;
9689;SDS011;4884;42.614;23.340;2023-11-22T02:42:57;11.37;;;8.53;;
9689;SDS011;4884;42.614;23.340;2023-11-22T02:45:26;12.90;;;8.53;;
9689;SDS011;4884;42.614;23.340;2023-11-22T02:47:53;12.43;;;8.60;;
9689;SDS011;4884;42.614;23.340;2023-11-22T02:50:18;10.33;;;8.40;;
9689;SDS011;4884;42.614;23.340;2023-11-22T02:52:44;13.33;;;9.93;;
9689;SDS011;4884;42.614;23.340;2023-11-22T02:55:10;11.40;;;9.87;;
9689;SDS011;4884;42.614;23.340;2023-11-22T02:57:36;12.67;;;9.40;;
9689;SDS011;4884;42.614;23.340;2023-11-22T03:00:03;24.67;;;18.17;;
9689;SDS011;4884;42.614;23.340;2023-11-22T03:02:29;15.10;;;10.50;;
9689;SDS011;4884;42.614;23.340;2023-11-22T03:04:54;11.17;;;9.67;;
9689;SDS011;4884;42.614;23.340;2023-11-22T03:07:20;10.03;;;7.53;;
9689;SDS011;4884;42.614;23.340;2023-11-22T03:09:45;10.07;;;6.83;;
9689;SDS011;4884;42.614;23.340;2023-11-22T03:12:11;11.27;;;7.40;;
9689;SDS011;4884;42.614;23.340;2023-11-22T03:14:38;9.97;;;8.23;;
9689;SDS011;4884;42.614;23.340;2023-11-22T03:17:04;11.17;;;8.40;;
9689;SDS011;4884;42.614;23.340;2023-11-22T03:19:29;10.33;;;9.03;;
9689;SDS011;4884;42.614;23.340;2023-11-22T03:21:55;9.97;;;7.30;;
9689;SDS011;4884;42.614;23.340;2023-11-22T03:24:21;8.03;;;6.67;;
9689;SDS011;4884;42.614;23.340;2023-11-22T03:26:47;9.20;;;6.93;;
9689;SDS011;4884;42.614;23.340;2023-11-22T03:29:14;9.10;;;6.83;;
9689;SDS011;4884;42.614;23.340;2023-11-22T03:31:41;8.97;;;6.77;;
9689;SDS011;4884;42.614;23.340;2023-11-22T03:34:07;8.67;;;6.50;;
9689;SDS011;4884;42.614;23.340;2023-11-22T03:36:32;8.03;;;6.20;;
9689;SDS011;4884;42.614;23.340;2023-11-22T03:38:58;8.70;;;6.70;;
9689;SDS011;4884;42.614;23.340;2023-11-22T03:41:23;11.03;;;7.37;;
9689;SDS011;4884;42.614;23.340;2023-11-22T03:43:49;11.27;;;6.90;;
9689;SDS011;4884;42.614;23.340;2023-11-22T03:46:15;8.17;;;6.90;;
9689;SDS011;4884;42.614;23.340;2023-11-22T03:48:40;7.83;;;6.73;;
9689;SDS011;4884;42.614;23.340;2023-11-22T03:51:05;9.07;;;6.83;;
9689;SDS011;4884;42.614;23.340;2023-11-22T03:53:31;8.27;;;6.20;;
9689;SDS011;4884;42.614;23.340;2023-11-22T03:55:57;11.57;;;6.43;;
9689;SDS011;4884;42.614;23.340;2023-11-22T03:58:22;8.60;;;7.23;;
9689;SDS011;4884;42.614;23.340;2023-11-22T04:00:48;13.10;;;9.03;;
9689;SDS011;4884;42.614;23.340;2023-11-22T04:03:13;11.97;;;9.00;;
9689;SDS011;4884;42.614;23.340;2023-11-22T04:05:38;17.23;;;9.63;;
9689;SDS011;4884;42.614;23.340;2023-11-22T04:08:04;16.13;;;10.77;;
9689;SDS011;4884;42.614;23.340;2023-11-22T04:10:30;11.07;;;9.23;;
9689;SDS011;4884;42.614;23.340;2023-11-22T04:12:55;13.70;;;10.20;;
9689;SDS011;4884;42.614;23.340;2023-11-22T04:15:21;14.63;;;11.07;;
9689;SDS011;4884;42.614;23.340;2023-11-22T04:17:47;17.67;;;13.87;;
9689;SDS011;4884;42.614;23.340;2023-11-22T04:20:12;16.30;;;13.47;;
9689;SDS011;4884;42.614;23.340;2023-11-22T04:22:43;19.47;;;16.67;;
9689;SDS011;4884;42.614;23.340;2023-11-22T04:25:10;33.77;;;24.43;;
9689;SDS011;4884;42.614;23.340;2023-11-22T04:27:38;28.00;;;20.30;;
9689;SDS011;4884;42.614;23.340;2023-11-22T04:30:05;25.50;;;19.80;;
9689;SDS011;4884;42.614;23.340;2023-11-22T04:32:33;23.93;;;16.00;;
9689;SDS011;4884;42.614;23.340;2023-11-22T04:35:01;16.13;;;13.37;;
9689;SDS011;4884;42.614;23.340;2023-11-22T04:37:29;26.10;;;16.97;;
9689;SDS011;4884;42.614;23.340;2023-11-22T04:39:56;26.00;;;18.13;;
9689;SDS011;4884;42.614;23.340;2023-11-22T04:42:22;50.20;;;35.63;;
9689;SDS011;4884;42.614;23.340;2023-11-22T04:44:47;44.77;;;30.67;;
9689;SDS011;4884;42.614;23.340;2023-11-22T04:47:13;21.87;;;17.80;;
9689;SDS011;4884;42.614;23.340;2023-11-22T04:49:38;14.43;;;12.30;;
9689;SDS011;4884;42.614;23.340;2023-11-22T04:52:04;18.47;;;15.43;;
9689;SDS011;4884;42.614;23.340;2023-11-22T04:54:29;18.93;;;14.33;;
9689;SDS011;4884;42.614;23.340;2023-11-22T04:56:54;13.37;;;10.40;;
9689;SDS011;4884;42.614;23.340;2023-11-22T04:59:20;17.20;;;13.30;;
9689;SDS011;4884;42.614;23.340;2023-11-22T05:01:46;18.33;;;13.93;;
9689;SDS011;4884;42.614;23.340;2023-11-22T05:04:11;15.53;;;12.87;;
9689;SDS011;4884;42.614;23.340;2023-11-22T05:06:36;17.20;;;13.30;;
9689;SDS011;4884;42.614;23.340;2023-11-22T05:09:02;16.93;;;13.90;;
9689;SDS011;4884;42.614;23.340;2023-11-22T05:11:27;20.27;;;14.27;;
9689;SDS011;4884;42.614;23.340;2023-11-22T05:13:53;17.37;;;14.43;;
9689;SDS011;4884;42.614;23.340;2023-11-22T05:16:18;45.47;;;34.00;;
9689;SDS011;4884;42.614;23.340;2023-11-22T05:18:44;19.80;;;15.93;;
9689;SDS011;4884;42.614;23.340;2023-11-22T05:21:09;22.70;;;17.93;;
9689;SDS011;4884;42.614;23.340;2023-11-22T05:23:34;21.23;;;15.83;;
9689;SDS011;4884;42.614;23.340;2023-11-22T05:26:02;18.73;;;15.23;;
9689;SDS011;4884;42.614;23.340;2023-11-22T05:28:30;21.60;;;15.43;;
9689;SDS011;4884;42.614;23.340;2023-11-22T05:30:56;34.87;;;21.30;;
9689;SDS011;4884;42.614;23.340;2023-11-22T05:33:21;27.50;;;19.87;;
9689;SDS011;4884;42.614;23.340;2023-11-22T05:35:47;42.83;;;31.03;;
9689;SDS011;4884;42.614;23.340;2023-11-22T05:38:13;48.00;;;31.93;;
9689;SDS011;4884;42.614;23.340;2023-11-22T05:40:39;32.57;;;21.23;;
9689;SDS011;4884;42.614;23.340;2023-11-22T05:43:04;22.13;;;16.70;;
9689;SDS011;4884;42.614;23.340;2023-11-22T05:45:30;19.10;;;14.37;;
9689;SDS011;4884;42.614;23.340;2023-11-22T05:47:55;30.57;;;18.83;;
9689;SDS011;4884;42.614;23.340;2023-11-22T05:50:20;20.60;;;16.23;;
9689;SDS011;4884;42.614;23.340;2023-11-22T05:52:46;18.03;;;13.40;;
9689;SDS011;4884;42.614;23.340;2023-11-22T05:55:11;31.37;;;21.93;;
9689;SDS011;4884;42.614;23.340;2023-11-22T05:57:39;130.33;;;56.77;;
9689;SDS011;4884;42.614;23.340;2023-11-22T06:00:05;63.53;;;33.80;;
9689;SDS011;4884;42.614;23.340;2023-11-22T06:02:32;52.73;;;27.20;;
9689;SDS011;4884;42.614;23.340;2023-11-22T06:04:57;56.67;;;27.53;;
9689;SDS011;4884;42.614;23.340;2023-11-22T06:07:23;41.77;;;25.20;;
9689;SDS011;4884;42.614;23.340;2023-11-22T06:09:48;36.33;;;21.43;;
9689;SDS011;4884;42.614;23.340;2023-11-22T06:12:13;33.07;;;20.20;;
9689;SDS011;4884;42.614;23.340;2023-11-22T06:14:39;37.57;;;22.03;;
9689;SDS011;4884;42.614;23.340;2023-11-22T06:17:04;27.70;;;17.50;;
9689;SDS011;4884;42.614;23.340;2023-11-22T06:19:30;25.47;;;19.57;;
9689;SDS011;4884;42.614;23.340;2023-11-22T06:21:55;27.07;;;20.83;;
9689;SDS011;4884;42.614;23.340;2023-11-22T06:24:21;28.70;;;21.07;;
9689;SDS011;4884;42.614;23.340;2023-11-22T06:26:46;28.07;;;22.97;;
9689;SDS011;4884;42.614;23.340;2023-11-22T06:29:12;32.97;;;25.17;;
9689;SDS011;4884;42.614;23.340;2023-11-22T06:31:37;34.63;;;24.10;;
9689;SDS011;4884;42.614;23.340;2023-11-22T06:34:03;42.20;;;29.77;;
9689;SDS011;4884;42.614;23.340;2023-11-22T06:36:29;34.73;;;24.97;;
9689;SDS011;4884;42.614;23.340;2023-11-22T06:38:54;36.63;;;24.70;;
9689;SDS011;4884;42.614;23.340;2023-11-22T06:41:20;32.60;;;24.63;;
9689;SDS011;4884;42.614;23.340;2023-11-22T06:43:47;47.83;;;30.40;;
9689;SDS011;4884;42.614;23.340;2023-11-22T06:46:12;51.33;;;31.53;;
9689;SDS011;4884;42.614;23.340;2023-11-22T06:48:38;63.63;;;39.27;;
9689;SDS011;4884;42.614;23.340;2023-11-22T06:51:03;72.73;;;53.97;;
9689;SDS011;4884;42.614;23.340;2023-11-22T06:53:29;61.57;;;44.30;;
9689;SDS011;4884;42.614;23.340;2023-11-22T06:55:54;51.43;;;37.90;;
9689;SDS011;4884;42.614;23.340;2023-11-22T06:58:19;49.80;;;38.27;;
9689;SDS011;4884;42.614;23.340;2023-11-22T07:00:45;37.97;;;30.27;;
9689;SDS011;4884;42.614;23.340;2023-11-22T07:03:10;57.10;;;41.00;;
9689;SDS011;4884;42.614;23.340;2023-11-22T07:05:36;56.07;;;41.20;;
9689;SDS011;4884;42.614;23.340;2023-11-22T07:08:02;44.30;;;34.43;;
9689;SDS011;4884;42.614;23.340;2023-11-22T07:10:28;47.03;;;34.23;;
9689;SDS011;4884;42.614;23.340;2023-11-22T07:12:54;48.23;;;32.23;;
9689;SDS011;4884;42.614;23.340;2023-11-22T07:15:21;38.20;;;26.30;;
9689;SDS011;4884;42.614;23.340;2023-11-22T07:17:46;38.00;;;25.70;;
9689;SDS011;4884;42.614;23.340;2023-11-22T07:20:12;39.00;;;26.20;;
9689;SDS011;4884;42.614;23.340;2023-11-22T07:22:41;35.73;;;25.50;;
9689;SDS011;4884;42.614;23.340;2023-11-22T07:25:08;37.97;;;25.67;;
9689;SDS011;4884;42.614;23.340;2023-11-22T07:27:43;41.57;;;26.17;;
9689;SDS011;4884;42.614;23.340;2023-11-22T07:30:09;34.90;;;26.17;;
9689;SDS011;4884;42.614;23.340;2023-11-22T07:32:38;33.17;;;24.67;;
9689;SDS011;4884;42.614;23.340;2023-11-22T07:35:04;32.37;;;24.13;;
9689;SDS011;4884;42.614;23.340;2023-11-22T07:37:33;34.13;;;24.63;;
9689;SDS011;4884;42.614;23.340;2023-11-22T07:39:59;32.83;;;24.43;;
9689;SDS011;4884;42.614;23.340;2023-11-22T07:42:25;32.07;;;24.20;;
9689;SDS011;4884;42.614;23.340;2023-11-22T07:44:51;32.00;;;23.47;;
9689;SDS011;4884;42.614;23.340;2023-11-22T07:47:21;26.57;;;21.07;;
9689;SDS011;4884;42.614;23.340;2023-11-22T07:49:48;29.93;;;24.43;;
9689;SDS011;4884;42.614;23.340;2023-11-22T07:52:13;35.10;;;27.10;;
9689;SDS011;4884;42.614;23.340;2023-11-22T07:54:39;42.37;;;29.27;;
9689;SDS011;4884;42.614;23.340;2023-11-22T07:57:05;52.77;;;43.07;;
9689;SDS011;4884;42.614;23.340;2023-11-22T07:59:32;57.50;;;43.10;;
9689;SDS011;4884;42.614;23.340;2023-11-22T08:01:57;46.30;;;34.43;;
9689;SDS011;4884;42.614;23.340;2023-11-22T08:04:23;44.03;;;35.30;;
9689;SDS011;4884;42.614;23.340;2023-11-22T08:06:49;40.83;;;32.60;;
9689;SDS011;4884;42.614;23.340;2023-11-22T08:09:16;36.80;;;27.67;;
9689;SDS011;4884;42.614;23.340;2023-11-22T08:11:42;51.00;;;35.33;;
9689;SDS011;4884;42.614;23.340;2023-11-22T08:14:08;47.07;;;31.07;;
9689;SDS011;4884;42.614;23.340;2023-11-22T08:16:33;47.10;;;32.40;;
9689;SDS011;4884;42.614;23.340;2023-11-22T08:19:03;39.13;;;30.93;;
9689;SDS011;4884;42.614;23.340;2023-11-22T08:21:30;56.57;;;49.97;;
9689;SDS011;4884;42.614;23.340;2023-11-22T08:23:55;69.33;;;60.13;;
9689;SDS011;4884;42.614;23.340;2023-11-22T08:26:24;53.20;;;43.77;;
9689;SDS011;4884;42.614;23.340;2023-11-22T08:28:50;78.80;;;49.07;;
9689;SDS011;4884;42.614;23.340;2023-11-22T08:31:16;54.00;;;44.33;;
9689;SDS011;4884;42.614;23.340;2023-11-22T08:33:41;43.10;;;33.37;;
9689;SDS011;4884;42.614;23.340;2023-11-22T08:36:07;40.27;;;31.00;;
9689;SDS011;4884;42.614;23.340;2023-11-22T08:38:34;39.17;;;32.37;;
9689;SDS011;4884;42.614;23.340;2023-11-22T08:41:03;58.70;;;47.33;;
9689;SDS011;4884;42.614;23.340;2023-11-22T08:43:30;48.40;;;40.43;;
9689;SDS011;4884;42.614;23.340;2023-11-22T08:45:57;19.50;;;17.40;;
9689;SDS011;4884;42.614;23.340;2023-11-22T08:48:26;36.80;;;32.77;;
9689;SDS011;4884;42.614;23.340;2023-11-22T08:50:51;23.47;;;18.10;;
9689;SDS011;4884;42.614;23.340;2023-11-22T08:53:18;31.30;;;25.67;;
9689;SDS011;4884;42.614;23.340;2023-11-22T08:55:44;35.30;;;27.27;;
9689;SDS011;4884;42.614;23.340;2023-11-22T08:58:10;33.53;;;29.73;;
9689;SDS011;4884;42.614;23.340;2023-11-22T09:00:36;38.60;;;32.43;;
9689;SDS011;4884;42.614;23.340;2023-11-22T09:03:01;37.70;;;31.50;;
9689;SDS011;4884;42.614;23.340;2023-11-22T09:05:28;37.73;;;29.13;;
9689;SDS011;4884;42.614;23.340;2023-11-22T09:07:54;43.37;;;34.50;;
9689;SDS011;4884;42.614;23.340;2023-11-22T09:10:20;33.77;;;29.03;;
9689;SDS011;4884;42.614;23.340;2023-11-22T09:12:47;35.57;;;29.33;;
9689;SDS011;4884;42.614;23.340;2023-11-22T09:15:13;41.83;;;30.63;;
9689;SDS011;4884;42.614;23.340;2023-11-22T09:17:41;33.67;;;27.13;;
9689;SDS011;4884;42.614;23.340;2023-11-22T09:20:17;35.20;;;29.43;;
9689;SDS011;4884;42.614;23.340;2023-11-22T09:25:19;39.70;;;31.17;;
9689;SDS011;4884;42.614;23.340;2023-11-22T09:27:45;46.07;;;35.33;;
9689;SDS011;4884;42.614;23.340;2023-11-22T09:30:12;30.20;;;25.87;;
9689;SDS011;4884;42.614;23.340;2023-11-22T09:32:45;30.97;;;27.60;;
9689;SDS011;4884;42.614;23.340;2023-11-22T09:35:12;44.27;;;39.77;;
9689;SDS011;4884;42.614;23.340;2023-11-22T09:37:39;57.57;;;40.57;;
9689;SDS011;4884;42.614;23.340;2023-11-22T09:40:07;36.57;;;31.10;;
9689;SDS011;4884;42.614;23.340;2023-11-22T09:42:34;37.13;;;30.07;;
9689;SDS011;4884;42.614;23.340;2023-11-22T09:45:01;34.53;;;29.83;;
9689;SDS011;4884;42.614;23.340;2023-11-22T09:47:28;37.13;;;32.40;;
9689;SDS011;4884;42.614;23.340;2023-11-22T09:49:57;34.37;;;30.97;;
9689;SDS011;4884;42.614;23.340;2023-11-22T09:52:27;30.47;;;26.90;;
9689;SDS011;4884;42.614;23.340;2023-11-22T09:54:54;32.33;;;25.17;;
9689;SDS011;4884;42.614;23.340;2023-11-22T09:57:20;32.07;;;26.53;;
9689;SDS011;4884;42.614;23.340;2023-11-22T09:59:47;33.10;;;26.57;;
9689;SDS011;4884;42.614;23.340;2023-11-22T10:02:16;30.57;;;26.90;;
9689;SDS011;4884;42.614;23.340;2023-11-22T10:04:42;33.67;;;26.93;;
9689;SDS011;4884;42.614;23.340;2023-11-22T10:07:07;35.13;;;26.53;;
9689;SDS011;4884;42.614;23.340;2023-11-22T10:09:34;36.60;;;28.50;;
9689;SDS011;4884;42.614;23.340;2023-11-22T10:12:02;33.67;;;27.13;;
9689;SDS011;4884;42.614;23.340;2023-11-22T10:14:27;32.70;;;27.53;;
9689;SDS011;4884;42.614;23.340;2023-11-22T10:16:59;33.93;;;28.50;;
9689;SDS011;4884;42.614;23.340;2023-11-22T10:19:26;36.93;;;28.90;;
9689;SDS011;4884;42.614;23.340;2023-11-22T10:22:08;38.43;;;29.03;;
9689;SDS011;4884;42.614;23.340;2023-11-22T10:24:34;30.87;;;25.47;;
9689;SDS011;4884;42.614;23.340;2023-11-22T10:27:03;33.27;;;26.90;;
9689;SDS011;4884;42.614;23.340;2023-11-22T10:29:29;38.30;;;30.60;;
9689;SDS011;4884;42.614;23.340;2023-11-22T10:31:54;32.77;;;25.60;;
9689;SDS011;4884;42.614;23.340;2023-11-22T10:34:23;31.57;;;27.07;;
9689;SDS011;4884;42.614;23.340;2023-11-22T10:36:49;32.13;;;26.33;;
9689;SDS011;4884;42.614;23.340;2023-11-22T10:39:21;31.27;;;25.70;;
9689;SDS011;4884;42.614;23.340;2023-11-22T10:41:46;37.63;;;29.10;;
9689;SDS011;4884;42.614;23.340;2023-11-22T10:44:12;32.43;;;26.57;;
9689;SDS011;4884;42.614;23.340;2023-11-22T10:46:38;35.63;;;27.77;;
9689;SDS011;4884;42.614;23.340;2023-11-22T10:49:05;37.33;;;27.07;;
9689;SDS011;4884;42.614;23.340;2023-11-22T10:51:31;34.77;;;27.77;;
9689;SDS011;4884;42.614;23.340;2023-11-22T10:53:57;34.33;;;27.83;;
9689;SDS011;4884;42.614;23.340;2023-11-22T10:56:23;41.10;;;29.17;;
9689;SDS011;4884;42.614;23.340;2023-11-22T10:58:49;34.83;;;27.60;;
9689;SDS011;4884;42.614;23.340;2023-11-22T11:01:16;35.13;;;27.63;;
9689;SDS011;4884;42.614;23.340;2023-11-22T11:03:41;31.67;;;27.30;;
9689;SDS011;4884;42.614;23.340;2023-11-22T11:06:13;27.63;;;24.63;;
9689;SDS011;4884;42.614;23.340;2023-11-22T11:08:40;27.97;;;23.70;;
9689;SDS011;4884;42.614;23.340;2023-11-22T11:11:06;30.23;;;23.03;;
9689;SDS011;4884;42.614;23.340;2023-11-22T11:13:32;28.87;;;24.17;;
9689;SDS011;4884;42.614;23.340;2023-11-22T11:15:57;25.87;;;22.93;;
9689;SDS011;4884;42.614;23.340;2023-11-22T11:18:23;30.40;;;22.97;;
9689;SDS011;4884;42.614;23.340;2023-11-22T11:20:49;30.10;;;24.60;;
9689;SDS011;4884;42.614;23.340;2023-11-22T11:23:17;31.73;;;24.67;;
9689;SDS011;4884;42.614;23.340;2023-11-22T11:25:44;32.20;;;24.50;;
9689;SDS011;4884;42.614;23.340;2023-11-22T11:28:13;27.87;;;23.70;;
9689;SDS011;4884;42.614;23.340;2023-11-22T11:30:43;30.70;;;23.43;;
9689;SDS011;4884;42.614;23.340;2023-11-22T11:33:15;29.07;;;24.30;;
9689;SDS011;4884;42.614;23.340;2023-11-22T11:35:44;28.13;;;24.00;;
9689;SDS011;4884;42.614;23.340;2023-11-22T11:38:13;63.37;;;41.63;;
9689;SDS011;4884;42.614;23.340;2023-11-22T11:40:42;53.70;;;36.80;;
9689;SDS011;4884;42.614;23.340;2023-11-22T11:43:09;34.87;;;29.67;;
9689;SDS011;4884;42.614;23.340;2023-11-22T11:45:36;55.13;;;36.90;;
9689;SDS011;4884;42.614;23.340;2023-11-22T11:48:04;50.17;;;34.57;;
9689;SDS011;4884;42.614;23.340;2023-11-22T11:50:30;39.90;;;29.77;;
9689;SDS011;4884;42.614;23.340;2023-11-22T11:52:56;38.27;;;28.47;;
9689;SDS011;4884;42.614;23.340;2023-11-22T11:55:21;35.77;;;27.83;;
9689;SDS011;4884;42.614;23.340;2023-11-22T11:57:47;37.57;;;26.40;;
9689;SDS011;4884;42.614;23.340;2023-11-22T12:00:13;24.60;;;20.60;;
9689;SDS011;4884;42.614;23.340;2023-11-22T12:02:39;20.63;;;17.97;;
9689;SDS011;4884;42.614;23.340;2023-11-22T12:05:05;27.90;;;20.60;;
9689;SDS011;4884;42.614;23.340;2023-11-22T12:07:34;28.17;;;21.37;;
9689;SDS011;4884;42.614;23.340;2023-11-22T12:10:00;27.53;;;20.50;;
9689;SDS011;4884;42.614;23.340;2023-11-22T12:12:26;26.13;;;21.03;;
9689;SDS011;4884;42.614;23.340;2023-11-22T12:14:51;23.83;;;20.27;;
9689;SDS011;4884;42.614;23.340;2023-11-22T12:17:17;24.60;;;19.30;;
9689;SDS011;4884;42.614;23.340;2023-11-22T12:19:43;26.23;;;21.73;;
9689;SDS011;4884;42.614;23.340;2023-11-22T12:22:08;24.20;;;21.53;;
9689;SDS011;4884;42.614;23.340;2023-11-22T12:24:34;27.57;;;22.13;;
9689;SDS011;4884;42.614;23.340;2023-11-22T12:27:00;32.37;;;24.13;;
9689;SDS011;4884;42.614;23.340;2023-11-22T12:29:25;28.40;;;23.47;;
9689;SDS011;4884;42.614;23.340;2023-11-22T12:31:51;32.50;;;26.53;;
9689;SDS011;4884;42.614;23.340;2023-11-22T12:34:18;30.60;;;26.43;;
9689;SDS011;4884;42.614;23.340;2023-11-22T12:36:45;33.00;;;28.00;;
9689;SDS011;4884;42.614;23.340;2023-11-22T12:39:12;32.73;;;25.17;;
9689;SDS011;4884;42.614;23.340;2023-11-22T12:41:45;27.83;;;24.10;;
9689;SDS011;4884;42.614;23.340;2023-11-22T12:44:12;35.30;;;25.07;;
9689;SDS011;4884;42.614;23.340;2023-11-22T12:46:47;34.30;;;24.80;;
9689;SDS011;4884;42.614;23.340;2023-11-22T12:49:15;31.23;;;25.27;;
9689;SDS011;4884;42.614;23.340;2023-11-22T12:52:14;33.73;;;26.17;;
9689;SDS011;4884;42.614;23.340;2023-11-22T12:54:34;30.37;;;24.93;;
9689;SDS011;4884;42.614;23.340;2023-11-22T12:57:00;32.90;;;26.03;;
9689;SDS011;4884;42.614;23.340;2023-11-22T12:59:26;39.23;;;25.67;;
9689;SDS011;4884;42.614;23.340;2023-11-22T13:01:58;36.57;;;26.90;;
9689;SDS011;4884;42.614;23.340;2023-11-22T13:04:25;34.13;;;25.50;;
9689;SDS011;4884;42.614;23.340;2023-11-22T13:06:50;33.40;;;26.73;;
9689;SDS011;4884;42.614;23.340;2023-11-22T13:09:16;36.50;;;24.63;;
9689;SDS011;4884;42.614;23.340;2023-11-22T13:11:42;32.03;;;25.43;;
9689;SDS011;4884;42.614;23.340;2023-11-22T13:14:11;35.43;;;26.00;;
9689;SDS011;4884;42.614;23.340;2023-11-22T13:16:39;29.73;;;24.40;;
9689;SDS011;4884;42.614;23.340;2023-11-22T13:19:05;33.13;;;24.60;;
9689;SDS011;4884;42.614;23.340;2023-11-22T13:21:31;33.00;;;24.43;;
9689;SDS011;4884;42.614;23.340;2023-11-22T13:23:56;32.37;;;25.43;;
9689;SDS011;4884;42.614;23.340;2023-11-22T13:26:24;27.27;;;23.23;;
9689;SDS011;4884;42.614;23.340;2023-11-22T13:28:49;37.87;;;26.27;;
9689;SDS011;4884;42.614;23.340;2023-11-22T13:31:15;32.53;;;26.07;;
9689;SDS011;4884;42.614;23.340;2023-11-22T13:33:41;33.70;;;25.60;;
9689;SDS011;4884;42.614;23.340;2023-11-22T13:36:09;32.93;;;24.97;;
9689;SDS011;4884;42.614;23.340;2023-11-22T13:38:36;31.50;;;24.63;;
9689;SDS011;4884;42.614;23.340;2023-11-22T13:41:02;33.93;;;22.77;;
9689;SDS011;4884;42.614;23.340;2023-11-22T13:43:27;33.73;;;24.43;;
9689;SDS011;4884;42.614;23.340;2023-11-22T13:45:52;33.57;;;23.63;;
9689;SDS011;4884;42.614;23.340;2023-11-22T13:48:18;30.87;;;23.20;;
9689;SDS011;4884;42.614;23.340;2023-11-22T13:50:43;30.73;;;24.30;;
9689;SDS011;4884;42.614;23.340;2023-11-22T13:53:09;33.13;;;25.30;;
9689;SDS011;4884;42.614;23.340;2023-11-22T13:55:36;29.60;;;23.73;;
9689;SDS011;4884;42.614;23.340;2023-11-22T13:58:02;32.03;;;25.37;;
9689;SDS011;4884;42.614;23.340;2023-11-22T14:00:29;32.10;;;25.07;;
9689;SDS011;4884;42.614;23.340;2023-11-22T14:02:59;30.00;;;25.47;;
9689;SDS011;4884;42.614;23.340;2023-11-22T14:05:31;37.73;;;26.70;;
9689;SDS011;4884;42.614;23.340;2023-11-22T14:07:57;37.47;;;28.83;;
9689;SDS011;4884;42.614;23.340;2023-11-22T14:10:23;32.63;;;27.17;;
9689;SDS011;4884;42.614;23.340;2023-11-22T14:12:49;32.33;;;26.67;;
9689;SDS011;4884;42.614;23.340;2023-11-22T14:15:15;34.23;;;27.40;;
9689;SDS011;4884;42.614;23.340;2023-11-22T14:17:41;40.77;;;31.27;;
9689;SDS011;4884;42.614;23.340;2023-11-22T14:22:36;42.77;;;33.60;;
9689;SDS011;4884;42.614;23.340;2023-11-22T14:25:02;44.73;;;33.90;;
9689;SDS011;4884;42.614;23.340;2023-11-22T14:27:32;37.80;;;32.53;;
9689;SDS011;4884;42.614;23.340;2023-11-22T14:29:58;39.47;;;31.50;;
9689;SDS011;4884;42.614;23.340;2023-11-22T14:32:24;41.37;;;32.90;;
9689;SDS011;4884;42.614;23.340;2023-11-22T14:34:49;36.37;;;31.00;;
9689;SDS011;4884;42.614;23.340;2023-11-22T14:37:16;45.63;;;35.07;;
9689;SDS011;4884;42.614;23.340;2023-11-22T14:39:42;45.40;;;37.77;;